Time;durP1;ratioP1;P1;durP2;ratioP2;P2;SDS_P1;SDS_P2;PMS_P1;PMS_P2;Temp;Humidity;BMP_temperature;BMP_pressure;BME280_temperature;BME280_humidity;BME280_pressure;Samples;Min_cycle;Max_cycle;Signal;HPM_P1;HPM_P2
2021/10/23 00:00:09;;;;;;;0.80;0.50;;;5.30;99.90;;;;;;5034150;28;20560;-69
2021/10/23 00:02:40;;;;;;;0.80;0.50;;;5.30;99.90;;;;;;5033994;28;20267;-68
2021/10/23 00:05:09;;;;;;;0.80;0.50;;;5.30;99.90;;;;;;5033903;28;20581;-68
2021/10/23 00:07:39;;;;;;;0.80;0.50;;;5.30;99.90;;;;;;5033914;28;20280;-68
2021/10/23 00:10:07;;;;;;;0.80;0.50;;;5.40;99.90;;;;;;5033820;28;20600;-67
2021/10/23 00:12:36;;;;;;;0.80;0.50;;;5.40;99.90;;;;;;5033670;28;20216;-69
2021/10/23 00:15:06;;;;;;;0.80;0.40;;;5.40;99.90;;;;;;5033683;28;20205;-69
2021/10/23 00:17:34;;;;;;;0.80;0.47;;;5.40;99.90;;;;;;5033792;28;20178;-68
2021/10/23 00:20:02;;;;;;;0.80;0.50;;;5.30;99.90;;;;;;5033438;28;20213;-68
2021/10/23 00:22:31;;;;;;;0.80;0.50;;;5.20;99.90;;;;;;5033669;28;20209;-68
2021/10/23 00:25:01;;;;;;;0.80;0.50;;;5.20;99.90;;;;;;5035900;28;20165;-69
2021/10/23 00:27:29;;;;;;;0.80;0.50;;;5.20;99.90;;;;;;5049577;28;20192;-69
2021/10/23 00:29:59;;;;;;;0.80;0.50;;;5.30;99.90;;;;;;5033776;28;20185;-70
2021/10/23 00:32:29;;;;;;;0.80;0.50;;;5.20;99.90;;;;;;5034084;28;20229;-71
2021/10/23 00:34:58;;;;;;;0.80;0.50;;;5.30;99.90;;;;;;5033569;28;20533;-69
2021/10/23 00:37:26;;;;;;;0.80;0.50;;;5.30;99.90;;;;;;5033483;28;20190;-67
2021/10/23 00:39:54;;;;;;;0.80;0.50;;;5.30;99.90;;;;;;5033214;28;20198;-68
2021/10/23 00:42:24;;;;;;;0.80;0.50;;;5.30;99.90;;;;;;5033236;28;20686;-67
2021/10/23 00:44:52;;;;;;;0.80;0.50;;;5.30;99.90;;;;;;5033071;28;20224;-69
2021/10/23 00:47:21;;;;;;;0.80;0.50;;;5.20;99.90;;;;;;5033833;28;20192;-69
2021/10/23 00:49:52;;;;;;;0.80;0.50;;;5.20;99.90;;;;;;5033873;28;20547;-69
2021/10/23 00:52:22;;;;;;;0.80;0.50;;;5.20;99.90;;;;;;5033389;28;20292;-69
2021/10/23 00:54:51;;;;;;;0.80;0.50;;;5.20;99.90;;;;;;5030410;28;20220;-68
2021/10/23 00:57:20;;;;;;;0.80;0.50;;;5.20;99.90;;;;;;5030814;28;20190;-69
2021/10/23 00:59:50;;;;;;;0.80;0.50;;;5.20;99.90;;;;;;5030581;28;20249;-69
2021/10/23 01:02:18;;;;;;;0.80;0.50;;;5.20;99.90;;;;;;5031096;28;20213;-68
2021/10/23 01:04:46;;;;;;;0.80;0.50;;;5.10;99.90;;;;;;5030892;28;20182;-70
2021/10/23 01:07:15;;;;;;;0.80;0.50;;;5.10;99.90;;;;;;5031339;28;20212;-68
2021/10/23 01:09:45;;;;;;;0.80;0.50;;;5.10;99.90;;;;;;5032148;28;20190;-68
2021/10/23 01:12:14;;;;;;;0.80;0.65;;;5.10;99.90;;;;;;5033439;28;20725;-68
2021/10/23 01:14:45;;;;;;;0.80;0.50;;;5.10;99.90;;;;;;5032719;28;20189;-69
2021/10/23 01:17:20;;;;;;;0.80;0.50;;;5.10;99.90;;;;;;5032798;28;20197;-69
2021/10/23 01:19:51;;;;;;;0.80;0.50;;;5.10;99.90;;;;;;5032749;28;20205;-68
2021/10/23 01:22:26;;;;;;;0.90;0.60;;;5.00;99.90;;;;;;5032784;28;20650;-71
2021/10/23 01:24:54;;;;;;;0.80;0.50;;;5.10;99.90;;;;;;5032479;28;20315;-68
2021/10/23 01:27:22;;;;;;;2.78;0.75;;;5.00;99.90;;;;;;5032225;28;20197;-69
2021/10/23 01:29:51;;;;;;;0.80;0.50;;;5.00;99.90;;;;;;5032160;28;20638;-69
2021/10/23 01:32:19;;;;;;;0.80;0.50;;;5.10;99.90;;;;;;5032047;28;20217;-69
2021/10/23 01:34:47;;;;;;;0.80;0.50;;;5.10;99.90;;;;;;5014122;28;20193;-69
2021/10/23 01:37:17;;;;;;;0.80;0.50;;;5.10;99.90;;;;;;5032184;28;20223;-69
2021/10/23 01:39:45;;;;;;;0.80;0.50;;;5.10;99.90;;;;;;5014491;28;20217;-68
2021/10/23 01:42:13;;;;;;;0.80;0.50;;;5.00;99.90;;;;;;5032525;28;20209;-68
2021/10/23 01:44:41;;;;;;;0.80;0.50;;;5.10;99.90;;;;;;5032408;28;20560;-69
2021/10/23 01:47:09;;;;;;;0.80;0.50;;;5.00;99.90;;;;;;5032627;28;20299;-69
2021/10/23 01:49:37;;;;;;;1.10;0.60;;;5.00;99.90;;;;;;5032457;28;20193;-69
2021/10/23 01:52:06;;;;;;;0.80;0.50;;;5.10;99.90;;;;;;5014151;28;20631;-70
2021/10/23 01:54:35;;;;;;;0.80;0.50;;;5.10;99.90;;;;;;5032207;28;20251;-69
2021/10/23 01:57:03;;;;;;;2.35;1.02;;;5.10;99.90;;;;;;5032287;28;20193;-69
2021/10/23 01:59:31;;;;;;;0.80;0.50;;;5.10;99.90;;;;;;5014733;28;20185;-69
2021/10/23 02:02:01;;;;;;;0.80;0.50;;;5.20;99.90;;;;;;5032138;28;20259;-69
2021/10/23 02:04:29;;;;;;;2.35;0.95;;;5.20;99.90;;;;;;5032245;28;20197;-68
2021/10/23 02:06:58;;;;;;;0.80;0.50;;;5.20;99.90;;;;;;5032849;28;20169;-69
2021/10/23 02:09:26;;;;;;;0.80;0.50;;;5.30;99.90;;;;;;5032985;28;20181;-67
2021/10/23 02:11:55;;;;;;;0.80;0.50;;;5.20;99.90;;;;;;5033284;28;20574;-70
2021/10/23 02:14:23;;;;;;;0.80;0.50;;;5.10;99.90;;;;;;5037235;28;20204;-70
2021/10/23 02:16:51;;;;;;;0.80;0.50;;;5.10;99.90;;;;;;5038361;28;20177;-68
2021/10/23 02:19:20;;;;;;;0.80;0.50;;;5.20;99.90;;;;;;5034756;28;20182;-67
2021/10/23 02:21:48;;;;;;;0.80;0.50;;;5.20;99.90;;;;;;5037943;28;20212;-69
2021/10/23 02:24:16;;;;;;;0.80;0.50;;;5.20;99.90;;;;;;5035566;28;20582;-69
2021/10/23 02:26:44;;;;;;;0.80;0.50;;;5.20;99.90;;;;;;5033253;28;20173;-68
2021/10/23 02:29:14;;;;;;;3.15;1.20;;;5.20;99.90;;;;;;5032742;28;20190;-69
2021/10/23 02:31:42;;;;;;;0.80;0.50;;;5.20;99.90;;;;;;5031847;28;20212;-67
2021/10/23 02:34:10;;;;;;;0.80;0.50;;;5.20;99.90;;;;;;5031654;28;20260;-68
2021/10/23 02:36:39;;;;;;;0.80;0.50;;;5.10;99.90;;;;;;5031541;28;20189;-68
2021/10/23 02:39:07;;;;;;;0.80;0.50;;;5.10;99.90;;;;;;5031658;28;20170;-67
2021/10/23 02:41:35;;;;;;;0.80;0.50;;;5.10;99.90;;;;;;5031436;28;20705;-69
2021/10/23 02:44:04;;;;;;;0.80;0.50;;;5.10;99.90;;;;;;5031625;28;20547;-69
2021/10/23 02:46:34;;;;;;;0.80;0.50;;;5.10;99.90;;;;;;5030243;28;20217;-69
2021/10/23 02:49:07;;;;;;;0.80;0.50;;;5.10;99.90;;;;;;5031305;28;20623;-68
2021/10/23 02:51:36;;;;;;;0.80;0.50;;;5.10;99.90;;;;;;5031257;28;20186;-68
2021/10/23 02:54:04;;;;;;;0.80;0.50;;;5.10;99.90;;;;;;5031583;28;20193;-67
2021/10/23 02:56:32;;;;;;;0.80;0.50;;;5.10;99.90;;;;;;5013655;28;20212;-67
2021/10/23 02:59:01;;;;;;;0.80;0.50;;;5.10;99.90;;;;;;5013714;28;20289;-67
2021/10/23 03:01:30;;;;;;;0.80;0.60;;;5.20;99.90;;;;;;5031174;28;20201;-69
2021/10/23 03:03:59;;;;;;;0.80;0.50;;;5.20;99.90;;;;;;5031160;28;20663;-68
2021/10/23 03:06:28;;;;;;;0.80;0.50;;;5.20;99.90;;;;;;5031287;28;20199;-70
2021/10/23 03:08:56;;;;;;;0.80;0.50;;;5.10;99.90;;;;;;5031572;28;20646;-68
2021/10/23 03:11:25;;;;;;;0.80;0.50;;;5.10;99.90;;;;;;5031444;28;20174;-69
2021/10/23 03:13:53;;;;;;;0.80;0.60;;;5.10;99.90;;;;;;5030920;28;20182;-67
2021/10/23 03:16:21;;;;;;;0.80;0.50;;;5.10;99.90;;;;;;5031143;28;20189;-68
2021/10/23 03:18:51;;;;;;;0.80;0.60;;;5.10;99.90;;;;;;5033007;28;20634;-67
2021/10/23 03:21:20;;;;;;;0.80;0.50;;;5.10;99.90;;;;;;5034362;28;20225;-68
2021/10/23 03:23:49;;;;;;;2.10;1.20;;;5.10;99.90;;;;;;5034584;28;20236;-69
2021/10/23 03:26:17;;;;;;;0.80;0.50;;;5.10;99.90;;;;;;5034617;28;20193;-67
2021/10/23 03:28:47;;;;;;;0.90;0.70;;;5.00;99.90;;;;;;5034572;28;20398;-67
2021/10/23 03:31:15;;;;;;;1.45;1.08;;;5.00;99.90;;;;;;5034510;28;20504;-68
2021/10/23 03:33:43;;;;;;;0.80;0.50;;;5.00;99.90;;;;;;5034395;28;20186;-68
2021/10/23 03:36:11;;;;;;;0.80;0.50;;;5.00;99.90;;;;;;5034508;28;20200;-68
2021/10/23 03:38:41;;;;;;;0.80;0.50;;;5.00;99.90;;;;;;5034514;28;20185;-68
2021/10/23 03:41:09;;;;;;;0.80;0.50;;;5.00;99.90;;;;;;5034455;28;20202;-69
2021/10/23 03:43:37;;;;;;;0.80;0.50;;;5.00;99.90;;;;;;5034305;28;20559;-68
2021/10/23 03:46:05;;;;;;;0.80;0.50;;;5.00;99.90;;;;;;5034628;28;20646;-69
2021/10/23 03:48:33;;;;;;;0.80;0.50;;;5.10;99.90;;;;;;5034285;28;20198;-67
2021/10/23 03:51:02;;;;;;;0.80;0.50;;;5.10;99.90;;;;;;5034298;28;20194;-69
2021/10/23 03:53:30;;;;;;;0.80;0.50;;;5.10;99.90;;;;;;5034078;28;20259;-69
2021/10/23 03:56:01;;;;;;;1.55;1.45;;;5.20;99.90;;;;;;5033925;28;20185;-68
2021/10/23 03:58:29;;;;;;;0.80;0.50;;;5.10;99.90;;;;;;5034134;28;20174;-70
2021/10/23 04:00:58;;;;;;;0.80;0.55;;;5.10;99.90;;;;;;5033718;28;20592;-68
2021/10/23 04:03:27;;;;;;;0.80;0.50;;;5.20;99.90;;;;;;5033645;28;20259;-70
2021/10/23 04:05:55;;;;;;;0.80;0.50;;;5.20;99.90;;;;;;5033755;28;20182;-67
2021/10/23 04:08:26;;;;;;;0.80;0.50;;;5.30;99.90;;;;;;5033926;28;20177;-67
2021/10/23 04:10:55;;;;;;;0.80;0.50;;;5.30;99.90;;;;;;5034046;28;20267;-69
2021/10/23 04:13:25;;;;;;;0.80;0.50;;;5.20;99.90;;;;;;5033776;28;20698;-68
2021/10/23 04:15:53;;;;;;;0.80;0.50;;;5.30;99.90;;;;;;5033838;28;20592;-67
2021/10/23 04:18:21;;;;;;;0.80;0.50;;;5.30;99.90;;;;;;5033535;28;20189;-68
2021/10/23 04:20:49;;;;;;;2.33;1.35;;;5.40;99.90;;;;;;5033602;28;20189;-67
2021/10/23 04:23:17;;;;;;;1.38;1.20;;;5.40;99.90;;;;;;5033872;28;20741;-68
2021/10/23 04:25:45;;;;;;;0.80;0.50;;;5.40;99.90;;;;;;5034243;28;20630;-68
2021/10/23 04:28:14;;;;;;;0.80;0.50;;;5.40;99.90;;;;;;5033970;28;20190;-68
2021/10/23 04:30:43;;;;;;;0.80;0.50;;;5.30;99.90;;;;;;5033594;28;20196;-68
2021/10/23 04:33:11;;;;;;;0.80;0.50;;;5.30;99.90;;;;;;5033279;28;20201;-68
2021/10/23 04:35:39;;;;;;;0.80;0.50;;;5.20;99.90;;;;;;5033323;28;20185;-68
2021/10/23 04:38:08;;;;;;;0.80;0.50;;;5.20;99.90;;;;;;5033139;28;20197;-68
2021/10/23 04:40:38;;;;;;;0.80;0.50;;;5.30;99.90;;;;;;5033331;28;20588;-68
2021/10/23 04:43:06;;;;;;;0.80;0.50;;;5.30;99.90;;;;;;5015137;28;20213;-68
2021/10/23 04:45:34;;;;;;;0.80;0.50;;;5.20;99.90;;;;;;5033007;28;20231;-69
2021/10/23 04:48:05;;;;;;;0.80;0.50;;;5.30;99.90;;;;;;5032943;28;20610;-68
2021/10/23 04:50:34;;;;;;;0.80;0.50;;;5.20;99.90;;;;;;5033013;28;20177;-68
2021/10/23 04:53:02;;;;;;;0.80;0.50;;;5.20;99.90;;;;;;5033030;28;20205;-68
2021/10/23 04:55:30;;;;;;;0.90;0.60;;;5.20;99.90;;;;;;5033005;28;20258;-69
2021/10/23 04:57:58;;;;;;;0.80;0.50;;;5.10;99.90;;;;;;5032894;28;20193;-69
2021/10/23 05:00:27;;;;;;;0.80;0.50;;;5.10;99.90;;;;;;5015332;28;20185;-69
2021/10/23 05:02:55;;;;;;;0.80;0.50;;;5.00;99.90;;;;;;5033090;28;20217;-67
2021/10/23 05:05:25;;;;;;;0.80;0.50;;;4.90;99.90;;;;;;5033177;28;20186;-68
2021/10/23 05:07:53;;;;;;;0.80;0.50;;;4.90;99.90;;;;;;5033139;28;20201;-68
2021/10/23 05:10:21;;;;;;;0.80;0.50;;;4.90;99.90;;;;;;5033257;28;20189;-68
2021/10/23 05:12:49;;;;;;;0.80;0.50;;;4.90;99.90;;;;;;5032881;28;20208;-68
2021/10/23 05:15:17;;;;;;;0.80;0.50;;;4.80;99.90;;;;;;5033207;28;20190;-68
2021/10/23 05:17:45;;;;;;;0.80;0.50;;;4.80;99.90;;;;;;5032905;28;20196;-68
2021/10/23 05:20:14;;;;;;;0.90;0.60;;;4.70;99.90;;;;;;5014904;28;20257;-68
2021/10/23 05:22:43;;;;;;;0.90;0.70;;;4.80;99.90;;;;;;5032286;28;20213;-68
2021/10/23 05:25:12;;;;;;;0.80;0.50;;;4.70;99.90;;;;;;5032511;28;20248;-68
2021/10/23 05:27:40;;;;;;;0.80;0.50;;;4.70;99.90;;;;;;5032444;28;20590;-68
2021/10/23 05:30:08;;;;;;;0.80;0.50;;;4.60;99.90;;;;;;5032411;28;20196;-69
2021/10/23 05:32:36;;;;;;;0.80;0.50;;;4.60;99.90;;;;;;5032151;28;20222;-68
2021/10/23 05:35:05;;;;;;;0.80;0.50;;;4.60;99.90;;;;;;5032213;28;20189;-69
2021/10/23 05:37:34;;;;;;;0.80;0.50;;;4.70;99.90;;;;;;5032809;28;20189;-69
2021/10/23 05:40:04;;;;;;;0.80;0.50;;;4.70;99.90;;;;;;5030773;28;20196;-68
2021/10/23 05:42:32;;;;;;;0.80;0.50;;;4.60;99.90;;;;;;5031707;28;20686;-69
2021/10/23 05:45:00;;;;;;;1.70;0.80;;;4.60;99.90;;;;;;5032305;28;20189;-68
2021/10/23 05:47:28;;;;;;;0.80;0.50;;;4.60;99.90;;;;;;5032566;28;20185;-68
2021/10/23 05:49:56;;;;;;;0.80;0.50;;;4.50;99.90;;;;;;5014989;28;20202;-67
2021/10/23 05:52:24;;;;;;;0.80;0.50;;;4.60;99.90;;;;;;5032616;28;20249;-70
2021/10/23 05:54:53;;;;;;;1.08;0.98;;;4.50;99.90;;;;;;5032538;28;20189;-70
2021/10/23 05:57:22;;;;;;;0.80;0.50;;;4.50;99.90;;;;;;5032208;28;20181;-68
2021/10/23 05:59:50;;;;;;;0.80;0.50;;;4.50;99.90;;;;;;5031913;28;20660;-67
2021/10/23 06:02:25;;;;;;;0.80;0.50;;;4.50;99.90;;;;;;5031685;28;20220;-67
2021/10/23 06:04:55;;;;;;;0.80;0.50;;;4.50;99.90;;;;;;5031968;28;20260;-68
2021/10/23 06:07:26;;;;;;;0.80;0.50;;;4.60;99.90;;;;;;5031985;28;20188;-68
2021/10/23 06:09:56;;;;;;;0.80;0.50;;;4.60;99.90;;;;;;5031898;28;20216;-69
2021/10/23 06:12:26;;;;;;;1.13;0.60;;;4.60;99.90;;;;;;5032119;28;20823;-69
2021/10/23 06:14:55;;;;;;;1.35;1.25;;;4.60;99.90;;;;;;5031936;28;20181;-68
2021/10/23 06:17:23;;;;;;;0.80;0.50;;;4.60;99.90;;;;;;5031700;28;20188;-69
2021/10/23 06:19:52;;;;;;;0.80;0.60;;;4.70;99.90;;;;;;5031773;28;20199;-68
2021/10/23 06:22:20;;;;;;;0.80;0.50;;;4.70;99.90;;;;;;5031659;28;20567;-67
2021/10/23 06:24:48;;;;;;;0.80;0.50;;;4.80;99.90;;;;;;5031907;28;20185;-70
2021/10/23 06:27:16;;;;;;;0.80;0.50;;;4.80;99.90;;;;;;5031882;28;20189;-69
2021/10/23 06:29:46;;;;;;;0.80;0.50;;;4.90;99.90;;;;;;5031741;28;20185;-67
2021/10/23 06:32:14;;;;;;;0.80;0.50;;;4.90;99.90;;;;;;5013520;28;20221;-70
2021/10/23 06:34:42;;;;;;;0.80;0.50;;;4.90;99.90;;;;;;5031573;28;20189;-69
2021/10/23 06:37:11;;;;;;;0.80;0.50;;;4.90;99.90;;;;;;5031648;28;20204;-68
2021/10/23 06:39:39;;;;;;;0.80;0.60;;;5.00;99.90;;;;;;5031742;28;20217;-71
2021/10/23 06:42:07;;;;;;;0.80;0.50;;;5.00;99.90;;;;;;5031604;28;20308;-67
2021/10/23 06:44:35;;;;;;;0.80;0.50;;;5.00;99.90;;;;;;5031540;28;20674;-69
2021/10/23 06:47:05;;;;;;;0.80;0.50;;;5.10;99.90;;;;;;5031594;28;20189;-69
2021/10/23 06:49:33;;;;;;;0.80;0.50;;;5.20;99.90;;;;;;5031576;28;20573;-69
2021/10/23 06:52:01;;;;;;;0.80;0.50;;;5.20;99.90;;;;;;5014704;28;20221;-68
2021/10/23 06:54:29;;;;;;;0.80;0.50;;;5.30;99.90;;;;;;5035930;28;20189;-69
2021/10/23 06:56:57;;;;;;;0.80;0.50;;;5.40;99.90;;;;;;5035397;28;20661;-70
2021/10/23 06:59:31;;;;;;;0.80;0.50;;;5.40;99.90;;;;;;5035532;28;20177;-69
2021/10/23 07:01:59;;;;;;;0.80;0.50;;;5.50;1.00;;;;;;5033883;28;20304;-69
2021/10/23 07:04:29;;;;;;;0.80;0.50;;;5.60;1.00;;;;;;5035297;28;20181;-68
2021/10/23 07:06:57;;;;;;;0.80;0.50;;;5.60;99.90;;;;;;5035274;28;20185;-68
2021/10/23 07:09:25;;;;;;;0.80;0.50;;;5.70;46.40;;;;;;5035402;28;20177;-69
2021/10/23 07:11:53;;;;;;;0.80;0.50;;;5.70;1.00;;;;;;5035139;28;20568;-70
2021/10/23 07:14:21;;;;;;;0.80;0.50;;;5.80;99.90;;;;;;5035210;28;20170;-68
2021/10/23 07:16:50;;;;;;;0.80;0.50;;;5.90;99.90;;;;;;5035091;28;20777;-70
2021/10/23 07:19:18;;;;;;;0.80;0.50;;;6.00;95.40;;;;;;5034783;28;20535;-69
2021/10/23 07:21:47;;;;;;;0.80;0.50;;;6.10;1.00;;;;;;5034896;28;20259;-67
2021/10/23 07:24:17;;;;;;;1.00;0.70;;;6.20;99.90;;;;;;5017239;28;20666;-68
2021/10/23 07:26:45;;;;;;;0.80;0.50;;;6.20;99.90;;;;;;5035307;28;20189;-68
2021/10/23 07:29:14;;;;;;;1.02;0.93;;;6.40;99.90;;;;;;5034874;28;20166;-68
2021/10/23 07:31:42;;;;;;;1.65;1.55;;;6.40;1.00;;;;;;5035107;28;20213;-68
2021/10/23 07:34:11;;;;;;;0.80;0.50;;;6.50;1.00;;;;;;5034998;28;20182;-67
2021/10/23 07:36:39;;;;;;;0.95;0.82;;;6.70;1.00;;;;;;5034924;28;20228;-68
2021/10/23 07:39:09;;;;;;;1.10;0.90;;;6.90;99.90;;;;;;5034843;28;20193;-68
2021/10/23 07:41:38;;;;;;;0.90;0.73;;;7.10;27.50;;;;;;5034390;28;20624;-68
2021/10/23 07:44:07;;;;;;;0.80;0.50;;;7.40;1.00;;;;;;5034440;28;20247;-68
2021/10/23 07:46:35;;;;;;;0.80;0.60;;;7.60;99.90;;;;;;5034457;28;20201;-69
2021/10/23 07:49:03;;;;;;;2.78;0.93;;;7.60;99.90;;;;;;5035029;28;20189;-67
2021/10/23 07:51:34;;;;;;;0.80;0.50;;;7.70;99.90;;;;;;5034355;28;20308;-67
2021/10/23 07:54:03;;;;;;;0.80;0.50;;;7.70;99.90;;;;;;5034082;28;20185;-67
2021/10/23 07:56:33;;;;;;;0.80;0.50;;;7.70;99.90;;;;;;5034087;28;20204;-68
2021/10/23 07:59:01;;;;;;;0.80;0.50;;;7.80;99.90;;;;;;5034064;28;20196;-68
2021/10/23 08:01:29;;;;;;;0.80;0.50;;;7.70;99.90;;;;;;5033944;28;20173;-69
2021/10/23 08:03:58;;;;;;;0.90;0.50;;;7.80;99.90;;;;;;5033415;28;20213;-69
2021/10/23 08:06:26;;;;;;;1.10;0.70;;;7.70;99.90;;;;;;5034242;28;20603;-70
2021/10/23 08:08:55;;;;;;;0.90;0.80;;;7.70;99.90;;;;;;5034285;28;20174;-70
2021/10/23 08:11:23;;;;;;;0.80;0.50;;;7.80;99.90;;;;;;5034158;28;20543;-68
2021/10/23 08:13:53;;;;;;;0.80;0.50;;;7.80;99.90;;;;;;5035405;28;20189;-70
2021/10/23 08:16:21;;;;;;;0.80;0.50;;;7.80;99.90;;;;;;5036227;28;20178;-69
2021/10/23 08:18:49;;;;;;;2.28;0.65;;;7.80;99.90;;;;;;5035730;28;20198;-71
2021/10/23 08:21:19;;;;;;;0.90;0.80;;;7.80;99.90;;;;;;5035853;28;20261;-72
2021/10/23 08:23:47;;;;;;;0.90;0.70;;;7.90;99.90;;;;;;5018173;28;20220;-70
2021/10/23 08:26:15;;;;;;;0.80;0.50;;;7.80;99.90;;;;;;5035332;28;20200;-72
2021/10/23 08:28:44;;;;;;;1.23;0.60;;;7.90;99.90;;;;;;5017916;28;20197;-70
2021/10/23 08:31:13;;;;;;;1.13;1.00;;;8.10;99.90;;;;;;5017639;28;20201;-71
2021/10/23 08:33:42;;;;;;;0.80;0.50;;;8.40;99.90;;;;;;5034684;28;20182;-69
2021/10/23 08:36:10;;;;;;;0.80;0.50;;;8.70;99.90;;;;;;5035310;28;20265;-69
2021/10/23 08:38:38;;;;;;;0.90;0.50;;;8.90;99.90;;;;;;5034729;28;20181;-69
2021/10/23 08:41:07;;;;;;;0.80;0.50;;;8.70;99.90;;;;;;5035093;28;20173;-68
2021/10/23 08:43:37;;;;;;;0.80;0.50;;;8.60;99.90;;;;;;5018686;28;20312;-71
2021/10/23 08:46:09;;;;;;;0.80;0.50;;;8.70;99.90;;;;;;5035666;28;20193;-71
2021/10/23 08:48:40;;;;;;;0.80;0.50;;;8.80;99.90;;;;;;5035095;28;20581;-71
2021/10/23 08:51:09;;;;;;;0.88;0.50;;;9.00;99.90;;;;;;5036039;28;20184;-70
2021/10/23 08:53:40;;;;;;;0.80;0.40;;;9.00;99.90;;;;;;5035207;28;20689;-69
2021/10/23 08:56:09;;;;;;;0.80;0.50;;;9.00;99.10;;;;;;5035049;28;20169;-70
2021/10/23 08:58:38;;;;;;;1.00;0.60;;;9.10;99.90;;;;;;5034649;28;20589;-69
2021/10/23 09:01:10;;;;;;;0.80;0.50;;;9.20;98.60;;;;;;5035936;28;20178;-69
2021/10/23 09:03:42;;;;;;;0.80;0.50;;;9.30;96.80;;;;;;5035297;28;20205;-69
2021/10/23 09:06:14;;;;;;;0.80;0.50;;;9.20;98.00;;;;;;5033707;28;20689;-69
2021/10/23 09:09:02;;;;;;;1.17;1.08;;;9.20;97.90;;;;;;5033555;28;20272;-68
2021/10/23 09:11:32;;;;;;;0.80;0.50;;;9.20;96.30;;;;;;5015526;28;20194;-69
2021/10/23 09:14:31;;;;;;;0.80;0.50;;;9.20;97.90;;;;;;5033000;28;20603;-69
2021/10/23 09:17:05;;;;;;;0.80;0.60;;;9.30;98.80;;;;;;4932748;29;20670;-69
2021/10/23 09:19:37;;;;;;;0.80;0.55;;;9.30;98.40;;;;;;5016250;28;20207;-68
2021/10/23 09:22:07;;;;;;;0.80;0.50;;;9.30;96.80;;;;;;5032461;28;20293;-69
2021/10/23 09:24:36;;;;;;;0.80;0.50;;;9.30;97.20;;;;;;5032352;28;20208;-66
2021/10/23 09:27:17;;;;;;;0.90;0.63;;;9.30;96.60;;;;;;5032370;28;20205;-67
2021/10/23 09:29:45;;;;;;;0.90;0.60;;;9.30;96.80;;;;;;5032512;28;20577;-71
2021/10/23 09:32:16;;;;;;;0.80;0.50;;;9.10;96.90;;;;;;5116441;23;20228;-65
2021/10/23 09:34:45;;;;;;;0.80;0.50;;;9.00;97.80;;;;;;5072626;28;20585;-62
2021/10/23 09:37:14;;;;;;;0.80;0.50;;;9.10;98.40;;;;;;5072627;28;20164;-63
2021/10/23 09:39:42;;;;;;;0.80;0.50;;;9.20;96.20;;;;;;5072305;28;20180;-64
2021/10/23 09:42:15;;;;;;;0.80;0.50;;;9.20;94.60;;;;;;5072742;28;20208;-63
2021/10/23 09:45:02;;;;;;;1.20;0.80;;;9.30;95.40;;;;;;5073267;28;20275;-63
2021/10/23 09:47:38;;;;;;;0.80;0.50;;;9.40;94.80;;;;;;5072825;28;20686;-65
2021/10/23 09:50:14;;;;;;;0.80;0.50;;;9.50;94.20;;;;;;5072553;28;20208;-64
2021/10/23 09:53:03;;;;;;;1.90;0.82;;;9.60;92.80;;;;;;5071973;28;20222;-63
2021/10/23 09:55:36;;;;;;;1.00;0.80;;;9.80;90.10;;;;;;5071976;28;20263;-64
2021/10/23 09:58:15;;;;;;;0.80;0.50;;;10.00;90.10;;;;;;5071936;28;20446;-63
2021/10/23 10:04:14;;;;;;;0.80;0.50;;;10.00;80.10;;;;;;5071797;28;20505;-63
2021/10/23 10:06:46;;;;;;;0.83;0.60;;;10.00;82.30;;;;;;5071828;28;20204;-63
2021/10/23 10:09:14;;;;;;;2.20;0.63;;;10.20;76.90;;;;;;5072190;28;20411;-63
2021/10/23 10:11:43;;;;;;;0.93;0.83;;;10.30;77.90;;;;;;5072911;28;20413;-64
2021/10/23 10:14:11;;;;;;;0.80;0.50;;;10.40;73.50;;;;;;5055403;28;20402;-63
2021/10/23 10:16:41;;;;;;;0.93;0.70;;;10.40;70.00;;;;;;5073299;28;20403;-62
2021/10/23 10:19:10;;;;;;;1.30;0.60;;;10.30;61.70;;;;;;5072686;28;20190;-64
2021/10/23 10:21:38;;;;;;;0.90;0.50;;;10.30;64.20;;;;;;5072579;28;20495;-64
2021/10/23 10:24:16;;;;;;;0.80;0.50;;;10.30;60.00;;;;;;5072791;28;20644;-64
2021/10/23 10:27:01;;;;;;;0.80;0.50;;;10.30;54.00;;;;;;5072136;28;20410;-64
2021/10/23 10:29:41;;;;;;;0.90;0.73;;;10.30;53.60;;;;;;5076473;28;20476;-64
2021/10/23 10:32:18;;;;;;;0.80;0.50;;;10.40;53.10;;;;;;5075575;28;20469;-62
2021/10/23 10:38:10;;;;;;;1.43;0.60;;;10.60;52.60;;;;;;5071097;28;20911;-63
2021/10/23 10:43:26;;;;;;;0.90;0.60;;;10.90;42.30;;;;;;5055834;28;20967;-63
2021/10/23 10:45:57;;;;;;;0.80;0.50;;;10.80;41.50;;;;;;5055081;28;20458;-64
2021/10/23 10:48:41;;;;;;;0.80;0.50;;;10.70;43.00;;;;;;5037356;28;20506;-63
2021/10/23 10:51:18;;;;;;;0.80;0.50;;;11.00;42.40;;;;;;5055121;28;20433;-65
2021/10/23 10:54:05;;;;;;;0.90;0.50;;;11.30;37.40;;;;;;5055249;28;20787;-60
2021/10/23 10:56:47;;;;;;;0.80;0.50;;;11.40;37.20;;;;;;5054998;28;20419;-63
2021/10/23 10:59:49;;;;;;;0.80;0.40;;;11.50;36.00;;;;;;5055029;28;20423;-60
2021/10/23 11:02:31;;;;;;;0.90;0.70;;;11.50;37.30;;;;;;5064807;28;20806;-61
2021/10/23 11:05:21;;;;;;;0.80;0.50;;;11.60;36.70;;;;;;5074579;28;20541;-60
2021/10/23 11:08:11;;;;;;;1.00;0.50;;;11.60;37.20;;;;;;5056622;28;20504;-64
2021/10/23 11:10:56;;;;;;;0.80;0.50;;;11.60;34.80;;;;;;5055036;28;20822;-65
2021/10/23 11:13:27;;;;;;;0.80;0.50;;;11.50;33.60;;;;;;5054312;28;20493;-62
2021/10/23 11:15:55;;;;;;;0.90;0.50;;;11.40;35.90;;;;;;5054563;28;20427;-62
2021/10/23 11:18:23;;;;;;;0.87;0.60;;;11.50;36.80;;;;;;5054674;28;20419;-64
2021/10/23 11:20:52;;;;;;;0.80;0.40;;;11.40;36.80;;;;;;5055125;28;20570;-65
2021/10/23 11:23:22;;;;;;;1.20;1.00;;;11.40;38.30;;;;;;5055177;28;20942;-64
2021/10/23 11:25:51;;;;;;;2.40;1.17;;;11.60;40.10;;;;;;5054858;28;20787;-64
2021/10/23 11:28:19;;;;;;;0.83;0.60;;;11.80;33.50;;;;;;5054746;28;20431;-62
2021/10/23 11:30:49;;;;;;;1.53;1.33;;;11.70;35.50;;;;;;5054673;28;20424;-62
2021/10/23 11:33:20;;;;;;;0.80;0.47;;;11.50;33.90;;;;;;5054708;28;20413;-61
2021/10/23 11:35:51;;;;;;;0.80;0.60;;;11.20;37.70;;;;;;5054718;28;20767;-64
2021/10/23 11:38:22;;;;;;;0.80;0.50;;;11.00;38.50;;;;;;5053877;28;20412;-62
2021/10/23 11:40:55;;;;;;;3.30;0.77;;;10.90;40.90;;;;;;5054131;28;20514;-62
2021/10/23 11:43:24;;;;;;;1.23;0.77;;;10.90;41.60;;;;;;5065074;28;20425;-62
2021/10/23 11:45:54;;;;;;;0.80;0.50;;;11.10;39.20;;;;;;5058238;28;20466;-63
2021/10/23 11:48:22;;;;;;;0.80;0.50;;;11.40;38.80;;;;;;5074032;28;20510;-63
2021/10/23 11:50:56;;;;;;;0.80;0.60;;;11.20;32.00;;;;;;5056457;28;20784;-63
2021/10/23 11:53:28;;;;;;;1.73;0.97;;;11.00;34.30;;;;;;5074433;28;20583;-65
2021/10/23 11:56:00;;;;;;;0.80;0.50;;;11.00;36.50;;;;;;5073883;28;20413;-62
2021/10/23 11:58:30;;;;;;;0.80;0.50;;;11.00;34.80;;;;;;5073691;28;20410;-63
2021/10/23 12:01:04;;;;;;;1.27;0.60;;;11.20;32.60;;;;;;5073703;28;20521;-63
2021/10/23 12:03:36;;;;;;;0.80;0.40;;;11.20;29.60;;;;;;5073694;28;20507;-63
2021/10/23 12:06:14;;;;;;;0.80;0.50;;;11.20;31.50;;;;;;5073744;28;20496;-63
2021/10/23 12:08:42;;;;;;;0.90;0.50;;;11.10;30.70;;;;;;5073541;28;20422;-64
2021/10/23 12:11:16;;;;;;;0.80;0.50;;;11.10;31.80;;;;;;5073130;28;20487;-63
2021/10/23 12:13:50;;;;;;;1.67;0.70;;;11.40;38.00;;;;;;5073715;28;20455;-63
2021/10/23 12:16:29;;;;;;;1.10;0.60;;;11.50;27.60;;;;;;5055494;28;20434;-63
2021/10/23 12:19:06;;;;;;;0.80;0.47;;;11.50;27.20;;;;;;5055481;28;20509;-65
2021/10/23 12:21:38;;;;;;;0.80;0.50;;;11.60;26.70;;;;;;5073166;28;20807;-64
2021/10/23 12:24:26;;;;;;;1.47;1.03;;;11.60;27.00;;;;;;5073378;28;20397;-65
2021/10/23 12:27:02;;;;;;;0.93;0.67;;;11.60;26.40;;;;;;5072538;28;20458;-62
2021/10/23 12:29:39;;;;;;;0.80;0.50;;;11.70;31.20;;;;;;5059177;28;20401;-63
2021/10/23 12:32:10;;;;;;;0.80;0.50;;;11.60;25.90;;;;;;5037855;28;20463;-65
2021/10/23 12:34:59;;;;;;;0.80;0.40;;;11.50;27.50;;;;;;5059681;28;20420;-63
2021/10/23 12:37:39;;;;;;;0.80;0.50;;;11.60;26.70;;;;;;5041655;28;20413;-63
2021/10/23 12:40:11;;;;;;;0.80;0.50;;;11.70;28.80;;;;;;5035957;28;20402;-63
2021/10/23 12:42:42;;;;;;;1.87;0.80;;;11.80;26.20;;;;;;5053562;28;20951;-65
2021/10/23 12:45:14;;;;;;;2.03;1.03;;;11.80;26.50;;;;;;5053464;28;20419;-64
2021/10/23 12:47:43;;;;;;;0.80;0.50;;;11.80;26.40;;;;;;5053025;28;20506;-63
2021/10/23 12:50:12;;;;;;;1.00;0.70;;;11.80;25.60;;;;;;5052506;28;20418;-65
2021/10/23 12:52:42;;;;;;;0.80;0.40;;;12.00;27.90;;;;;;5052525;28;20960;-64
2021/10/23 12:55:11;;;;;;;0.80;0.57;;;12.00;22.80;;;;;;5052908;28;20390;-65
2021/10/23 12:57:39;;;;;;;0.80;0.40;;;12.00;22.80;;;;;;5052592;28;20961;-65
2021/10/23 13:00:09;;;;;;;0.90;0.80;;;11.90;22.40;;;;;;5052820;28;20386;-62
2021/10/23 13:02:37;;;;;;;0.80;0.50;;;11.90;23.00;;;;;;5052371;28;20828;-64
2021/10/23 13:05:08;;;;;;;0.90;0.60;;;11.80;23.80;;;;;;5052629;28;20390;-61
2021/10/23 13:07:36;;;;;;;0.90;0.60;;;11.90;23.30;;;;;;5052158;28;20470;-64
2021/10/23 13:10:05;;;;;;;0.80;0.40;;;11.70;21.00;;;;;;5052339;28;20868;-66
2021/10/23 13:12:34;;;;;;;0.90;0.60;;;11.50;21.10;;;;;;5052294;28;20421;-65
2021/10/23 13:15:03;;;;;;;0.80;0.47;;;11.40;22.30;;;;;;5052737;28;20465;-63
2021/10/23 13:17:31;;;;;;;0.80;0.40;;;11.40;22.70;;;;;;5052310;28;20449;-63
2021/10/23 13:19:59;;;;;;;0.80;0.50;;;11.20;22.20;;;;;;5052622;28;20928;-64